sensor_id;sensor_type;location;lat;lon;timestamp;P1;durP1;ratioP1;P2;durP2;ratioP2
37851;SDS011;23691;52.486;4.650;2022-08-14T00:02:00;9.63;;;3.70;;
37851;SDS011;23691;52.486;4.650;2022-08-14T00:04:27;9.95;;;3.67;;
37851;SDS011;23691;52.486;4.650;2022-08-14T00:06:52;9.48;;;3.47;;
37851;SDS011;23691;52.486;4.650;2022-08-14T00:09:18;10.15;;;3.75;;
37851;SDS011;23691;52.486;4.650;2022-08-14T00:11:43;10.68;;;3.88;;
37851;SDS011;23691;52.486;4.650;2022-08-14T00:14:09;8.38;;;3.63;;
37851;SDS011;23691;52.486;4.650;2022-08-14T00:16:35;13.07;;;3.90;;
37851;SDS011;23691;52.486;4.650;2022-08-14T00:19:01;8.63;;;3.97;;
37851;SDS011;23691;52.486;4.650;2022-08-14T00:21:27;10.60;;;4.10;;
37851;SDS011;23691;52.486;4.650;2022-08-14T00:23:52;9.00;;;4.03;;
37851;SDS011;23691;52.486;4.650;2022-08-14T00:26:18;10.02;;;4.05;;
37851;SDS011;23691;52.486;4.650;2022-08-14T00:28:44;10.32;;;4.13;;
37851;SDS011;23691;52.486;4.650;2022-08-14T00:31:09;11.80;;;4.00;;
37851;SDS011;23691;52.486;4.650;2022-08-14T00:33:35;10.98;;;4.20;;
37851;SDS011;23691;52.486;4.650;2022-08-14T00:36:01;8.23;;;4.28;;
37851;SDS011;23691;52.486;4.650;2022-08-14T00:38:27;10.10;;;4.45;;
37851;SDS011;23691;52.486;4.650;2022-08-14T00:40:52;10.43;;;4.50;;
37851;SDS011;23691;52.486;4.650;2022-08-14T00:43:18;10.20;;;4.40;;
37851;SDS011;23691;52.486;4.650;2022-08-14T00:45:43;9.13;;;4.55;;
37851;SDS011;23691;52.486;4.650;2022-08-14T00:48:09;11.52;;;4.75;;
37851;SDS011;23691;52.486;4.650;2022-08-14T00:50:35;14.68;;;5.00;;
37851;SDS011;23691;52.486;4.650;2022-08-14T00:53:01;9.27;;;4.53;;
37851;SDS011;23691;52.486;4.650;2022-08-14T00:55:27;11.63;;;4.50;;
37851;SDS011;23691;52.486;4.650;2022-08-14T00:57:53;10.18;;;4.70;;
37851;SDS011;23691;52.486;4.650;2022-08-14T01:00:38;10.95;;;4.75;;
37851;SDS011;23691;52.486;4.650;2022-08-14T01:03:05;11.35;;;4.75;;
37851;SDS011;23691;52.486;4.650;2022-08-14T01:05:31;11.82;;;4.40;;
37851;SDS011;23691;52.486;4.650;2022-08-14T01:07:58;9.35;;;4.50;;
37851;SDS011;23691;52.486;4.650;2022-08-14T01:10:26;10.65;;;4.78;;
37851;SDS011;23691;52.486;4.650;2022-08-14T01:13:13;10.20;;;4.72;;
37851;SDS011;23691;52.486;4.650;2022-08-14T01:18:17;12.90;;;5.03;;
37851;SDS011;23691;52.486;4.650;2022-08-14T01:21:01;8.98;;;4.97;;
37851;SDS011;23691;52.486;4.650;2022-08-14T01:23:28;12.75;;;5.35;;
37851;SDS011;23691;52.486;4.650;2022-08-14T01:25:54;9.87;;;5.00;;
37851;SDS011;23691;52.486;4.650;2022-08-14T01:28:21;9.00;;;5.18;;
37851;SDS011;23691;52.486;4.650;2022-08-14T01:30:46;12.82;;;4.93;;
37851;SDS011;23691;52.486;4.650;2022-08-14T01:33:14;9.68;;;5.30;;
37851;SDS011;23691;52.486;4.650;2022-08-14T01:35:40;10.45;;;5.20;;
37851;SDS011;23691;52.486;4.650;2022-08-14T01:38:09;10.57;;;5.30;;
37851;SDS011;23691;52.486;4.650;2022-08-14T01:40:39;10.65;;;5.30;;
37851;SDS011;23691;52.486;4.650;2022-08-14T01:43:09;11.85;;;5.25;;
37851;SDS011;23691;52.486;4.650;2022-08-14T01:45:39;11.63;;;5.50;;
37851;SDS011;23691;52.486;4.650;2022-08-14T01:48:05;12.35;;;5.50;;
37851;SDS011;23691;52.486;4.650;2022-08-14T01:50:31;11.50;;;5.18;;
37851;SDS011;23691;52.486;4.650;2022-08-14T01:52:57;11.65;;;5.15;;
37851;SDS011;23691;52.486;4.650;2022-08-14T01:55:24;10.02;;;5.53;;
37851;SDS011;23691;52.486;4.650;2022-08-14T01:57:55;10.13;;;5.20;;
37851;SDS011;23691;52.486;4.650;2022-08-14T02:00:20;11.82;;;5.85;;
37851;SDS011;23691;52.486;4.650;2022-08-14T02:02:46;14.60;;;5.53;;
37851;SDS011;23691;52.486;4.650;2022-08-14T02:05:12;15.48;;;5.47;;
37851;SDS011;23691;52.486;4.650;2022-08-14T02:07:38;9.45;;;5.43;;
37851;SDS011;23691;52.486;4.650;2022-08-14T02:10:05;9.52;;;5.53;;
37851;SDS011;23691;52.486;4.650;2022-08-14T02:12:31;11.00;;;5.93;;
37851;SDS011;23691;52.486;4.650;2022-08-14T02:14:58;10.02;;;5.85;;
37851;SDS011;23691;52.486;4.650;2022-08-14T02:17:24;11.80;;;5.53;;
37851;SDS011;23691;52.486;4.650;2022-08-14T02:19:51;11.80;;;5.78;;
37851;SDS011;23691;52.486;4.650;2022-08-14T02:22:17;13.65;;;6.13;;
37851;SDS011;23691;52.486;4.650;2022-08-14T02:24:43;10.15;;;6.13;;
37851;SDS011;23691;52.486;4.650;2022-08-14T02:27:09;10.77;;;6.43;;
37851;SDS011;23691;52.486;4.650;2022-08-14T02:29:35;12.23;;;6.20;;
37851;SDS011;23691;52.486;4.650;2022-08-14T02:32:01;10.57;;;5.75;;
37851;SDS011;23691;52.486;4.650;2022-08-14T02:34:30;11.27;;;6.63;;
37851;SDS011;23691;52.486;4.650;2022-08-14T02:36:58;11.35;;;6.05;;
37851;SDS011;23691;52.486;4.650;2022-08-14T02:39:27;12.00;;;5.90;;
37851;SDS011;23691;52.486;4.650;2022-08-14T02:41:54;12.43;;;6.03;;
37851;SDS011;23691;52.486;4.650;2022-08-14T02:44:19;13.40;;;5.90;;
37851;SDS011;23691;52.486;4.650;2022-08-14T02:46:50;10.23;;;6.35;;
37851;SDS011;23691;52.486;4.650;2022-08-14T02:49:17;12.05;;;6.18;;
37851;SDS011;23691;52.486;4.650;2022-08-14T02:51:46;12.63;;;6.00;;
37851;SDS011;23691;52.486;4.650;2022-08-14T02:54:13;10.95;;;6.57;;
37851;SDS011;23691;52.486;4.650;2022-08-14T02:56:38;10.30;;;6.20;;
37851;SDS011;23691;52.486;4.650;2022-08-14T02:59:05;11.73;;;6.22;;
37851;SDS011;23691;52.486;4.650;2022-08-14T03:01:33;11.45;;;6.70;;
37851;SDS011;23691;52.486;4.650;2022-08-14T03:03:59;11.40;;;6.78;;
37851;SDS011;23691;52.486;4.650;2022-08-14T03:06:24;10.70;;;6.88;;
37851;SDS011;23691;52.486;4.650;2022-08-14T03:08:51;10.68;;;6.75;;
37851;SDS011;23691;52.486;4.650;2022-08-14T03:11:18;13.45;;;6.90;;
37851;SDS011;23691;52.486;4.650;2022-08-14T03:13:46;15.35;;;7.60;;
37851;SDS011;23691;52.486;4.650;2022-08-14T03:16:16;13.18;;;6.72;;
37851;SDS011;23691;52.486;4.650;2022-08-14T03:18:44;11.95;;;7.13;;
37851;SDS011;23691;52.486;4.650;2022-08-14T03:21:12;12.77;;;7.40;;
37851;SDS011;23691;52.486;4.650;2022-08-14T03:23:41;11.70;;;7.00;;
37851;SDS011;23691;52.486;4.650;2022-08-14T03:26:11;12.10;;;7.07;;
37851;SDS011;23691;52.486;4.650;2022-08-14T03:28:38;15.00;;;7.82;;
37851;SDS011;23691;52.486;4.650;2022-08-14T03:31:07;13.32;;;7.60;;
37851;SDS011;23691;52.486;4.650;2022-08-14T03:33:34;12.27;;;7.70;;
37851;SDS011;23691;52.486;4.650;2022-08-14T03:36:05;14.38;;;7.07;;
37851;SDS011;23691;52.486;4.650;2022-08-14T03:38:36;11.55;;;7.13;;
37851;SDS011;23691;52.486;4.650;2022-08-14T03:41:07;11.73;;;7.28;;
37851;SDS011;23691;52.486;4.650;2022-08-14T03:43:34;12.43;;;7.85;;
37851;SDS011;23691;52.486;4.650;2022-08-14T03:46:00;11.70;;;7.30;;
37851;SDS011;23691;52.486;4.650;2022-08-14T03:48:26;15.82;;;7.38;;
37851;SDS011;23691;52.486;4.650;2022-08-14T03:50:53;12.70;;;7.00;;
37851;SDS011;23691;52.486;4.650;2022-08-14T03:53:19;12.82;;;7.68;;
37851;SDS011;23691;52.486;4.650;2022-08-14T03:55:44;13.15;;;7.60;;
37851;SDS011;23691;52.486;4.650;2022-08-14T03:58:11;14.65;;;7.68;;
37851;SDS011;23691;52.486;4.650;2022-08-14T04:00:37;15.05;;;7.78;;
37851;SDS011;23691;52.486;4.650;2022-08-14T04:03:05;13.70;;;7.55;;
37851;SDS011;23691;52.486;4.650;2022-08-14T04:05:32;12.77;;;8.13;;
37851;SDS011;23691;52.486;4.650;2022-08-14T04:07:58;13.32;;;8.00;;
37851;SDS011;23691;52.486;4.650;2022-08-14T04:10:24;16.65;;;7.72;;
37851;SDS011;23691;52.486;4.650;2022-08-14T04:12:50;15.15;;;8.50;;
37851;SDS011;23691;52.486;4.650;2022-08-14T04:15:15;14.25;;;8.35;;
37851;SDS011;23691;52.486;4.650;2022-08-14T04:20:09;14.35;;;8.13;;
37851;SDS011;23691;52.486;4.650;2022-08-14T04:22:35;12.60;;;8.20;;
37851;SDS011;23691;52.486;4.650;2022-08-14T04:25:00;15.05;;;8.02;;
37851;SDS011;23691;52.486;4.650;2022-08-14T04:27:26;14.32;;;8.85;;
37851;SDS011;23691;52.486;4.650;2022-08-14T04:29:53;18.15;;;8.55;;
37851;SDS011;23691;52.486;4.650;2022-08-14T04:34:50;14.55;;;8.63;;
37851;SDS011;23691;52.486;4.650;2022-08-14T04:37:23;14.45;;;9.13;;
37851;SDS011;23691;52.486;4.650;2022-08-14T04:40:08;13.18;;;9.07;;
37851;SDS011;23691;52.486;4.650;2022-08-14T04:42:53;15.73;;;8.60;;
37851;SDS011;23691;52.486;4.650;2022-08-14T04:45:38;13.80;;;8.70;;
37851;SDS011;23691;52.486;4.650;2022-08-14T04:48:07;14.05;;;8.80;;
37851;SDS011;23691;52.486;4.650;2022-08-14T04:50:38;12.73;;;8.88;;
37851;SDS011;23691;52.486;4.650;2022-08-14T04:53:11;14.68;;;9.13;;
37851;SDS011;23691;52.486;4.650;2022-08-14T04:55:40;16.15;;;9.20;;
37851;SDS011;23691;52.486;4.650;2022-08-14T04:58:07;17.90;;;8.88;;
37851;SDS011;23691;52.486;4.650;2022-08-14T05:00:34;12.95;;;8.48;;
37851;SDS011;23691;52.486;4.650;2022-08-14T05:02:59;15.48;;;9.30;;
37851;SDS011;23691;52.486;4.650;2022-08-14T05:07:53;14.68;;;9.13;;
37851;SDS011;23691;52.486;4.650;2022-08-14T05:10:18;14.88;;;9.68;;
37851;SDS011;23691;52.486;4.650;2022-08-14T05:12:48;15.75;;;8.10;;
37851;SDS011;23691;52.486;4.650;2022-08-14T05:15:13;13.05;;;8.55;;
37851;SDS011;23691;52.486;4.650;2022-08-14T05:17:42;14.75;;;9.02;;
37851;SDS011;23691;52.486;4.650;2022-08-14T05:20:08;15.13;;;8.45;;
37851;SDS011;23691;52.486;4.650;2022-08-14T05:22:34;13.82;;;8.85;;
37851;SDS011;23691;52.486;4.650;2022-08-14T05:24:59;14.90;;;9.00;;
37851;SDS011;23691;52.486;4.650;2022-08-14T05:29:53;15.43;;;9.63;;
37851;SDS011;23691;52.486;4.650;2022-08-14T05:32:19;16.00;;;9.18;;
37851;SDS011;23691;52.486;4.650;2022-08-14T05:34:45;18.08;;;9.50;;
37851;SDS011;23691;52.486;4.650;2022-08-14T05:37:11;17.08;;;9.48;;
37851;SDS011;23691;52.486;4.650;2022-08-14T05:39:37;13.65;;;9.00;;
37851;SDS011;23691;52.486;4.650;2022-08-14T05:42:03;13.73;;;8.50;;
37851;SDS011;23691;52.486;4.650;2022-08-14T05:44:29;14.52;;;8.70;;
37851;SDS011;23691;52.486;4.650;2022-08-14T05:46:54;13.75;;;9.07;;
37851;SDS011;23691;52.486;4.650;2022-08-14T05:49:19;16.02;;;8.93;;
37851;SDS011;23691;52.486;4.650;2022-08-14T05:51:46;12.48;;;8.23;;
37851;SDS011;23691;52.486;4.650;2022-08-14T05:54:11;16.70;;;8.43;;
37851;SDS011;23691;52.486;4.650;2022-08-14T05:56:36;14.80;;;8.52;;
37851;SDS011;23691;52.486;4.650;2022-08-14T05:59:02;13.15;;;8.68;;
37851;SDS011;23691;52.486;4.650;2022-08-14T06:01:27;15.20;;;8.43;;
37851;SDS011;23691;52.486;4.650;2022-08-14T06:03:53;14.07;;;8.48;;
37851;SDS011;23691;52.486;4.650;2022-08-14T06:06:18;14.13;;;8.25;;
37851;SDS011;23691;52.486;4.650;2022-08-14T06:08:43;13.15;;;8.20;;
37851;SDS011;23691;52.486;4.650;2022-08-14T06:11:09;15.85;;;8.20;;
37851;SDS011;23691;52.486;4.650;2022-08-14T06:13:39;15.68;;;8.57;;
37851;SDS011;23691;52.486;4.650;2022-08-14T06:16:05;12.90;;;8.10;;
37851;SDS011;23691;52.486;4.650;2022-08-14T06:18:31;12.05;;;7.78;;
37851;SDS011;23691;52.486;4.650;2022-08-14T06:20:57;13.77;;;8.20;;
37851;SDS011;23691;52.486;4.650;2022-08-14T06:23:23;11.80;;;7.28;;
37851;SDS011;23691;52.486;4.650;2022-08-14T06:25:48;15.57;;;7.97;;
37851;SDS011;23691;52.486;4.650;2022-08-14T06:28:17;11.75;;;7.07;;
37851;SDS011;23691;52.486;4.650;2022-08-14T06:30:47;13.50;;;7.75;;
37851;SDS011;23691;52.486;4.650;2022-08-14T06:33:13;11.82;;;7.38;;
37851;SDS011;23691;52.486;4.650;2022-08-14T06:35:39;11.63;;;6.68;;
37851;SDS011;23691;52.486;4.650;2022-08-14T06:38:05;12.63;;;7.18;;
37851;SDS011;23691;52.486;4.650;2022-08-14T06:40:32;15.23;;;7.60;;
37851;SDS011;23691;52.486;4.650;2022-08-14T06:43:00;13.57;;;7.72;;
37851;SDS011;23691;52.486;4.650;2022-08-14T06:45:27;16.85;;;7.22;;
37851;SDS011;23691;52.486;4.650;2022-08-14T06:47:53;12.88;;;7.55;;
37851;SDS011;23691;52.486;4.650;2022-08-14T06:50:20;13.93;;;8.07;;
37851;SDS011;23691;52.486;4.650;2022-08-14T06:52:47;13.68;;;7.88;;
37851;SDS011;23691;52.486;4.650;2022-08-14T06:55:13;13.45;;;7.95;;
37851;SDS011;23691;52.486;4.650;2022-08-14T06:57:43;13.45;;;7.50;;
37851;SDS011;23691;52.486;4.650;2022-08-14T07:00:11;12.68;;;6.90;;
37851;SDS011;23691;52.486;4.650;2022-08-14T07:02:39;13.55;;;7.60;;
37851;SDS011;23691;52.486;4.650;2022-08-14T07:05:23;11.38;;;6.70;;
37851;SDS011;23691;52.486;4.650;2022-08-14T07:08:19;12.82;;;6.88;;
37851;SDS011;23691;52.486;4.650;2022-08-14T07:10:49;14.25;;;7.32;;
37851;SDS011;23691;52.486;4.650;2022-08-14T07:13:17;11.85;;;7.05;;
37851;SDS011;23691;52.486;4.650;2022-08-14T07:15:44;11.85;;;6.78;;
37851;SDS011;23691;52.486;4.650;2022-08-14T07:18:13;12.00;;;6.93;;
37851;SDS011;23691;52.486;4.650;2022-08-14T07:20:39;12.10;;;7.15;;
37851;SDS011;23691;52.486;4.650;2022-08-14T07:23:06;12.60;;;6.70;;
37851;SDS011;23691;52.486;4.650;2022-08-14T07:25:33;13.90;;;6.70;;
37851;SDS011;23691;52.486;4.650;2022-08-14T07:27:59;11.07;;;5.55;;
37851;SDS011;23691;52.486;4.650;2022-08-14T07:30:32;12.20;;;6.10;;
37851;SDS011;23691;52.486;4.650;2022-08-14T07:32:57;15.85;;;6.50;;
37851;SDS011;23691;52.486;4.650;2022-08-14T07:35:22;12.35;;;6.30;;
37851;SDS011;23691;52.486;4.650;2022-08-14T07:37:48;12.98;;;6.22;;
37851;SDS011;23691;52.486;4.650;2022-08-14T07:40:13;14.43;;;6.38;;
37851;SDS011;23691;52.486;4.650;2022-08-14T07:42:40;12.73;;;6.65;;
37851;SDS011;23691;52.486;4.650;2022-08-14T07:45:06;10.75;;;6.05;;
37851;SDS011;23691;52.486;4.650;2022-08-14T07:47:32;9.80;;;5.70;;
37851;SDS011;23691;52.486;4.650;2022-08-14T07:49:59;12.90;;;6.28;;
37851;SDS011;23691;52.486;4.650;2022-08-14T07:52:28;12.90;;;6.00;;
37851;SDS011;23691;52.486;4.650;2022-08-14T07:54:54;11.60;;;6.03;;
37851;SDS011;23691;52.486;4.650;2022-08-14T07:57:20;11.00;;;5.72;;
37851;SDS011;23691;52.486;4.650;2022-08-14T07:59:45;10.55;;;5.88;;
37851;SDS011;23691;52.486;4.650;2022-08-14T08:02:13;13.18;;;6.05;;
37851;SDS011;23691;52.486;4.650;2022-08-14T08:04:42;10.18;;;5.50;;
37851;SDS011;23691;52.486;4.650;2022-08-14T08:07:10;11.73;;;5.72;;
37851;SDS011;23691;52.486;4.650;2022-08-14T08:09:36;11.35;;;5.38;;
37851;SDS011;23691;52.486;4.650;2022-08-14T08:12:08;10.63;;;5.70;;
37851;SDS011;23691;52.486;4.650;2022-08-14T08:14:35;10.00;;;5.20;;
37851;SDS011;23691;52.486;4.650;2022-08-14T08:17:02;10.18;;;5.45;;
37851;SDS011;23691;52.486;4.650;2022-08-14T08:19:28;12.40;;;5.72;;
37851;SDS011;23691;52.486;4.650;2022-08-14T08:21:54;12.43;;;5.80;;
37851;SDS011;23691;52.486;4.650;2022-08-14T08:24:22;10.98;;;5.30;;
37851;SDS011;23691;52.486;4.650;2022-08-14T08:26:47;11.45;;;5.18;;
37851;SDS011;23691;52.486;4.650;2022-08-14T08:29:20;10.05;;;5.45;;
37851;SDS011;23691;52.486;4.650;2022-08-14T08:31:49;10.23;;;4.82;;
37851;SDS011;23691;52.486;4.650;2022-08-14T08:34:18;10.45;;;5.32;;
37851;SDS011;23691;52.486;4.650;2022-08-14T08:36:45;10.88;;;5.15;;
37851;SDS011;23691;52.486;4.650;2022-08-14T08:39:10;9.60;;;5.22;;
37851;SDS011;23691;52.486;4.650;2022-08-14T08:44:05;13.05;;;5.53;;
37851;SDS011;23691;52.486;4.650;2022-08-14T08:46:30;11.60;;;5.15;;
37851;SDS011;23691;52.486;4.650;2022-08-14T08:48:56;10.13;;;5.47;;
37851;SDS011;23691;52.486;4.650;2022-08-14T08:51:29;11.07;;;5.28;;
37851;SDS011;23691;52.486;4.650;2022-08-14T08:56:41;10.35;;;5.20;;
37851;SDS011;23691;52.486;4.650;2022-08-14T08:59:24;9.48;;;5.20;;
37851;SDS011;23691;52.486;4.650;2022-08-14T09:01:57;9.30;;;4.90;;
37851;SDS011;23691;52.486;4.650;2022-08-14T09:06:53;11.25;;;5.50;;
37851;SDS011;23691;52.486;4.650;2022-08-14T09:09:20;10.35;;;5.43;;
37851;SDS011;23691;52.486;4.650;2022-08-14T09:11:45;11.43;;;5.82;;
37851;SDS011;23691;52.486;4.650;2022-08-14T09:14:11;9.82;;;5.38;;
37851;SDS011;23691;52.486;4.650;2022-08-14T09:16:37;10.07;;;4.70;;
37851;SDS011;23691;52.486;4.650;2022-08-14T09:19:02;9.35;;;5.13;;
37851;SDS011;23691;52.486;4.650;2022-08-14T09:21:28;10.68;;;5.15;;
37851;SDS011;23691;52.486;4.650;2022-08-14T09:23:54;10.35;;;5.55;;
37851;SDS011;23691;52.486;4.650;2022-08-14T09:26:20;12.20;;;5.57;;
37851;SDS011;23691;52.486;4.650;2022-08-14T09:28:45;8.85;;;4.85;;
37851;SDS011;23691;52.486;4.650;2022-08-14T09:31:11;9.00;;;4.82;;
37851;SDS011;23691;52.486;4.650;2022-08-14T09:41:48;10.77;;;4.85;;
37851;SDS011;23691;52.486;4.650;2022-08-14T09:44:27;9.00;;;4.75;;
37851;SDS011;23691;52.486;4.650;2022-08-14T09:47:18;9.35;;;4.70;;
37851;SDS011;23691;52.486;4.650;2022-08-14T09:49:45;9.95;;;4.70;;
37851;SDS011;23691;52.486;4.650;2022-08-14T09:52:13;11.57;;;4.82;;
37851;SDS011;23691;52.486;4.650;2022-08-14T09:54:41;9.35;;;4.95;;
37851;SDS011;23691;52.486;4.650;2022-08-14T09:57:10;11.00;;;4.80;;
37851;SDS011;23691;52.486;4.650;2022-08-14T09:59:49;9.27;;;4.80;;
37851;SDS011;23691;52.486;4.650;2022-08-14T10:02:22;10.60;;;5.18;;
37851;SDS011;23691;52.486;4.650;2022-08-14T10:04:58;9.05;;;4.65;;
37851;SDS011;23691;52.486;4.650;2022-08-14T10:07:32;8.93;;;4.38;;
37851;SDS011;23691;52.486;4.650;2022-08-14T10:09:59;10.35;;;4.80;;
37851;SDS011;23691;52.486;4.650;2022-08-14T10:12:46;10.43;;;5.05;;
37851;SDS011;23691;52.486;4.650;2022-08-14T10:15:18;10.43;;;5.00;;
37851;SDS011;23691;52.486;4.650;2022-08-14T10:17:47;11.30;;;5.20;;
37851;SDS011;23691;52.486;4.650;2022-08-14T10:20:16;8.00;;;4.57;;
37851;SDS011;23691;52.486;4.650;2022-08-14T10:22:46;11.63;;;4.90;;
37851;SDS011;23691;52.486;4.650;2022-08-14T10:25:14;11.23;;;5.07;;
37851;SDS011;23691;52.486;4.650;2022-08-14T10:27:41;9.23;;;4.53;;
37851;SDS011;23691;52.486;4.650;2022-08-14T10:30:12;8.00;;;4.10;;
37851;SDS011;23691;52.486;4.650;2022-08-14T10:32:44;10.43;;;5.05;;
37851;SDS011;23691;52.486;4.650;2022-08-14T10:35:11;9.38;;;4.22;;
37851;SDS011;23691;52.486;4.650;2022-08-14T10:37:39;10.00;;;4.85;;
37851;SDS011;23691;52.486;4.650;2022-08-14T10:40:10;13.10;;;4.50;;
37851;SDS011;23691;52.486;4.650;2022-08-14T10:42:39;11.25;;;4.20;;
37851;SDS011;23691;52.486;4.650;2022-08-14T10:48:19;11.43;;;4.82;;
37851;SDS011;23691;52.486;4.650;2022-08-14T10:50:45;12.32;;;4.53;;
37851;SDS011;23691;52.486;4.650;2022-08-14T10:53:15;8.25;;;4.00;;
37851;SDS011;23691;52.486;4.650;2022-08-14T10:55:56;8.90;;;3.80;;
37851;SDS011;23691;52.486;4.650;2022-08-14T10:58:26;9.65;;;3.90;;
37851;SDS011;23691;52.486;4.650;2022-08-14T11:00:54;9.40;;;4.13;;
37851;SDS011;23691;52.486;4.650;2022-08-14T11:03:21;9.55;;;4.18;;
37851;SDS011;23691;52.486;4.650;2022-08-14T11:05:50;9.20;;;4.15;;
37851;SDS011;23691;52.486;4.650;2022-08-14T11:08:17;8.63;;;4.03;;
37851;SDS011;23691;52.486;4.650;2022-08-14T11:10:55;9.95;;;4.05;;
37851;SDS011;23691;52.486;4.650;2022-08-14T11:13:26;8.30;;;3.90;;
37851;SDS011;23691;52.486;4.650;2022-08-14T11:15:54;10.30;;;4.18;;
37851;SDS011;23691;52.486;4.650;2022-08-14T11:18:21;10.13;;;4.28;;
37851;SDS011;23691;52.486;4.650;2022-08-14T11:20:48;7.70;;;3.50;;
37851;SDS011;23691;52.486;4.650;2022-08-14T11:23:19;9.50;;;4.00;;
37851;SDS011;23691;52.486;4.650;2022-08-14T11:25:46;10.23;;;3.85;;
37851;SDS011;23691;52.486;4.650;2022-08-14T11:28:13;12.57;;;3.90;;
37851;SDS011;23691;52.486;4.650;2022-08-14T11:30:41;11.65;;;3.88;;
37851;SDS011;23691;52.486;4.650;2022-08-14T11:33:08;7.88;;;4.05;;
37851;SDS011;23691;52.486;4.650;2022-08-14T11:35:35;10.32;;;3.88;;
37851;SDS011;23691;52.486;4.650;2022-08-14T11:38:02;7.43;;;3.87;;
37851;SDS011;23691;52.486;4.650;2022-08-14T11:40:31;10.38;;;4.07;;
37851;SDS011;23691;52.486;4.650;2022-08-14T11:42:59;13.48;;;4.07;;
37851;SDS011;23691;52.486;4.650;2022-08-14T11:45:27;8.73;;;3.90;;
37851;SDS011;23691;52.486;4.650;2022-08-14T11:47:58;6.78;;;3.45;;
37851;SDS011;23691;52.486;4.650;2022-08-14T11:50:27;11.15;;;3.67;;
37851;SDS011;23691;52.486;4.650;2022-08-14T11:52:55;8.38;;;3.08;;
37851;SDS011;23691;52.486;4.650;2022-08-14T11:55:22;11.02;;;3.03;;
37851;SDS011;23691;52.486;4.650;2022-08-14T11:57:57;7.88;;;3.03;;
37851;SDS011;23691;52.486;4.650;2022-08-14T12:00:25;8.73;;;3.22;;
37851;SDS011;23691;52.486;4.650;2022-08-14T12:02:55;7.60;;;3.40;;
37851;SDS011;23691;52.486;4.650;2022-08-14T12:05:37;7.50;;;3.20;;
37851;SDS011;23691;52.486;4.650;2022-08-14T12:08:06;8.05;;;3.10;;
37851;SDS011;23691;52.486;4.650;2022-08-14T12:10:33;7.30;;;2.73;;
37851;SDS011;23691;52.486;4.650;2022-08-14T12:13:12;6.78;;;2.95;;
37851;SDS011;23691;52.486;4.650;2022-08-14T12:15:39;5.60;;;2.80;;
37851;SDS011;23691;52.486;4.650;2022-08-14T12:18:06;7.20;;;2.85;;
37851;SDS011;23691;52.486;4.650;2022-08-14T12:20:36;8.45;;;3.20;;
37851;SDS011;23691;52.486;4.650;2022-08-14T12:23:03;8.18;;;3.17;;
37851;SDS011;23691;52.486;4.650;2022-08-14T12:25:44;8.05;;;3.00;;
37851;SDS011;23691;52.486;4.650;2022-08-14T12:28:10;7.68;;;3.00;;
37851;SDS011;23691;52.486;4.650;2022-08-14T12:30:37;7.80;;;2.60;;
37851;SDS011;23691;52.486;4.650;2022-08-14T12:33:26;7.93;;;2.63;;
37851;SDS011;23691;52.486;4.650;2022-08-14T12:35:58;7.20;;;2.60;;
37851;SDS011;23691;52.486;4.650;2022-08-14T12:38:31;5.93;;;2.53;;
37851;SDS011;23691;52.486;4.650;2022-08-14T12:41:02;7.57;;;2.42;;
37851;SDS011;23691;52.486;4.650;2022-08-14T12:43:42;6.20;;;2.08;;
37851;SDS011;23691;52.486;4.650;2022-08-14T12:46:20;3.13;;;1.60;;
37851;SDS011;23691;52.486;4.650;2022-08-14T12:51:22;6.90;;;1.90;;
37851;SDS011;23691;52.486;4.650;2022-08-14T12:53:50;6.25;;;1.92;;
37851;SDS011;23691;52.486;4.650;2022-08-14T12:56:17;4.75;;;1.98;;
37851;SDS011;23691;52.486;4.650;2022-08-14T12:59:02;5.10;;;2.15;;
37851;SDS011;23691;52.486;4.650;2022-08-14T13:01:29;5.57;;;2.15;;
37851;SDS011;23691;52.486;4.650;2022-08-14T13:06:32;6.70;;;2.00;;
37851;SDS011;23691;52.486;4.650;2022-08-14T13:09:01;8.88;;;2.20;;
37851;SDS011;23691;52.486;4.650;2022-08-14T13:11:38;5.45;;;2.20;;
37851;SDS011;23691;52.486;4.650;2022-08-14T13:14:09;5.13;;;2.13;;
37851;SDS011;23691;52.486;4.650;2022-08-14T13:16:40;7.68;;;1.88;;
37851;SDS011;23691;52.486;4.650;2022-08-14T13:19:08;8.57;;;2.28;;
37851;SDS011;23691;52.486;4.650;2022-08-14T13:21:40;5.38;;;2.20;;
37851;SDS011;23691;52.486;4.650;2022-08-14T13:24:10;5.20;;;2.15;;
37851;SDS011;23691;52.486;4.650;2022-08-14T13:26:48;7.18;;;2.30;;
37851;SDS011;23691;52.486;4.650;2022-08-14T13:29:20;11.90;;;2.50;;
37851;SDS011;23691;52.486;4.650;2022-08-14T13:31:47;6.97;;;2.53;;
37851;SDS011;23691;52.486;4.650;2022-08-14T13:34:15;8.70;;;2.40;;
37851;SDS011;23691;52.486;4.650;2022-08-14T13:36:44;7.78;;;2.60;;
37851;SDS011;23691;52.486;4.650;2022-08-14T13:39:10;7.32;;;2.50;;
37851;SDS011;23691;52.486;4.650;2022-08-14T13:41:38;5.63;;;2.15;;
37851;SDS011;23691;52.486;4.650;2022-08-14T13:44:08;7.72;;;2.40;;
37851;SDS011;23691;52.486;4.650;2022-08-14T13:46:35;5.22;;;2.40;;
37851;SDS011;23691;52.486;4.650;2022-08-14T13:49:00;5.30;;;2.40;;
37851;SDS011;23691;52.486;4.650;2022-08-14T13:51:27;10.13;;;2.47;;
37851;SDS011;23691;52.486;4.650;2022-08-14T13:53:58;7.05;;;2.40;;
37851;SDS011;23691;52.486;4.650;2022-08-14T13:56:26;7.35;;;2.55;;
37851;SDS011;23691;52.486;4.650;2022-08-14T13:58:52;5.90;;;2.63;;
37851;SDS011;23691;52.486;4.650;2022-08-14T14:01:22;5.63;;;2.42;;
37851;SDS011;23691;52.486;4.650;2022-08-14T14:03:50;9.75;;;2.70;;
37851;SDS011;23691;52.486;4.650;2022-08-14T14:06:18;7.75;;;2.40;;
37851;SDS011;23691;52.486;4.650;2022-08-14T14:08:48;7.38;;;2.75;;
37851;SDS011;23691;52.486;4.650;2022-08-14T14:11:15;7.65;;;2.47;;
37851;SDS011;23691;52.486;4.650;2022-08-14T14:13:43;6.53;;;2.45;;
37851;SDS011;23691;52.486;4.650;2022-08-14T14:16:09;9.35;;;2.50;;
37851;SDS011;23691;52.486;4.650;2022-08-14T14:18:35;6.55;;;2.67;;
37851;SDS011;23691;52.486;4.650;2022-08-14T14:21:02;6.68;;;2.30;;
37851;SDS011;23691;52.486;4.650;2022-08-14T14:23:30;6.82;;;2.65;;
37851;SDS011;23691;52.486;4.650;2022-08-14T14:25:58;6.70;;;2.60;;
37851;SDS011;23691;52.486;4.650;2022-08-14T14:28:25;7.18;;;2.42;;
37851;SDS011;23691;52.486;4.650;2022-08-14T14:30:59;5.97;;;2.30;;
37851;SDS011;23691;52.486;4.650;2022-08-14T14:33:26;6.30;;;2.50;;
37851;SDS011;23691;52.486;4.650;2022-08-14T14:35:52;5.00;;;2.33;;
37851;SDS011;23691;52.486;4.650;2022-08-14T14:38:17;6.13;;;2.55;;
37851;SDS011;23691;52.486;4.650;2022-08-14T14:40:44;9.77;;;2.53;;
37851;SDS011;23691;52.486;4.650;2022-08-14T14:43:11;7.50;;;2.47;;
37851;SDS011;23691;52.486;4.650;2022-08-14T14:45:39;7.45;;;2.72;;
37851;SDS011;23691;52.486;4.650;2022-08-14T14:48:07;6.78;;;2.50;;
37851;SDS011;23691;52.486;4.650;2022-08-14T14:50:33;6.40;;;2.80;;
37851;SDS011;23691;52.486;4.650;2022-08-14T14:53:02;4.30;;;2.20;;
37851;SDS011;23691;52.486;4.650;2022-08-14T14:55:28;8.30;;;2.72;;
37851;SDS011;23691;52.486;4.650;2022-08-14T14:57:55;7.18;;;2.90;;
37851;SDS011;23691;52.486;4.650;2022-08-14T15:00:24;7.80;;;2.60;;
37851;SDS011;23691;52.486;4.650;2022-08-14T15:02:51;8.25;;;2.70;;
37851;SDS011;23691;52.486;4.650;2022-08-14T15:05:18;7.85;;;2.65;;
37851;SDS011;23691;52.486;4.650;2022-08-14T15:07:47;7.50;;;2.78;;
37851;SDS011;23691;52.486;4.650;2022-08-14T15:10:16;7.20;;;2.80;;
37851;SDS011;23691;52.486;4.650;2022-08-14T15:12:42;7.20;;;2.83;;
37851;SDS011;23691;52.486;4.650;2022-08-14T15:15:09;7.38;;;2.70;;
37851;SDS011;23691;52.486;4.650;2022-08-14T15:17:36;7.47;;;3.10;;
37851;SDS011;23691;52.486;4.650;2022-08-14T15:20:05;7.57;;;2.97;;
37851;SDS011;23691;52.486;4.650;2022-08-14T15:22:34;7.70;;;2.72;;